Terminal Aerodrome Forecast
Issued by NWS Austin/San Antonio, TX

Home | Current Version | Previous Version | Text Only | Print | Product List | Glossary On
Versions: 1 2 3 4 5 6 7 8 9 10 11 12 13 14 15 16 17 18 19 20 21
000
FTUS44 KEWX 210520
TAFSAT
TAF
KSAT 210520Z 2106/2212 14012KT P6SM SCT015
     FM210630 15008KT P6SM BKN012
     FM211600 17009KT P6SM SCT040
     FM212300 14012KT P6SM SCT040
     FM220700 14010KT P6SM OVC015=

USA.gov is the U.S. government's official web portal to all federal, state and local government web resources and services.